Time;durP1;ratioP1;P1;durP2;ratioP2;P2;SDS_P1;SDS_P2;PMS_P1;PMS_P2;Temp;Humidity;BMP_temperature;BMP_pressure;BME280_temperature;BME280_humidity;BME280_pressure;Samples;Min_cycle;Max_cycle;Signal;HPM_P1;HPM_P2
2023/09/11 00:01:35;;;;;;;17.30;8.93;;;19.90;99.90;;;;;;5096884;28;20346;-70
2023/09/11 00:04:23;;;;;;;16.65;9.13;;;19.60;99.90;;;;;;5098000;28;20723;-68
2023/09/11 00:07:14;;;;;;;13.95;9.02;;;19.50;99.90;;;;;;5096679;28;20230;-71
2023/09/11 00:10:06;;;;;;;12.65;8.98;;;19.60;99.90;;;;;;5095331;28;20645;-69
2023/09/11 00:12:54;;;;;;;15.38;8.65;;;19.50;99.90;;;;;;5091637;28;20285;-70
2023/09/11 00:15:43;;;;;;;14.07;8.32;;;19.40;99.90;;;;;;5099583;28;20256;-71
2023/09/11 00:18:32;;;;;;;17.15;9.20;;;19.40;99.90;;;;;;5095736;28;20216;-72
2023/09/11 00:21:21;;;;;;;15.68;8.90;;;19.40;99.90;;;;;;5092738;28;20227;-70
2023/09/11 00:24:12;;;;;;;12.70;9.10;;;19.40;99.90;;;;;;5094287;28;20431;-67
2023/09/11 00:27:00;;;;;;;14.32;9.00;;;19.30;99.90;;;;;;5075779;28;20230;-70
2023/09/11 00:29:51;;;;;;;12.02;8.90;;;19.30;99.90;;;;;;5074757;28;20215;-72
2023/09/11 00:32:40;;;;;;;12.45;8.98;;;19.30;99.90;;;;;;5097130;28;20227;-70
2023/09/11 00:35:29;;;;;;;13.48;9.13;;;19.30;99.90;;;;;;5099580;28;20246;-70
2023/09/11 00:38:18;;;;;;;12.63;9.18;;;19.20;99.90;;;;;;5095640;28;20868;-69
2023/09/11 00:41:09;;;;;;;14.13;9.07;;;19.20;99.90;;;;;;5080156;28;20230;-71
2023/09/11 00:43:57;;;;;;;13.05;9.20;;;19.20;99.90;;;;;;5090059;28;21079;-71
2023/09/11 00:46:46;;;;;;;15.13;8.77;;;19.10;99.90;;;;;;5098240;28;20963;-71
2023/09/11 00:49:35;;;;;;;13.52;9.60;;;19.10;99.90;;;;;;5092614;28;20234;-71
2023/09/11 00:52:25;;;;;;;13.82;9.23;;;19.20;99.90;;;;;;5094562;28;20226;-72
2023/09/11 00:55:14;;;;;;;13.77;9.10;;;19.20;99.90;;;;;;5091106;28;20226;-72
2023/09/11 00:58:04;;;;;;;13.05;8.40;;;19.20;99.90;;;;;;5095607;28;20227;-70
2023/09/11 01:00:54;;;;;;;17.33;9.00;;;19.20;99.90;;;;;;5069471;28;20292;-70
2023/09/11 01:03:44;;;;;;;15.05;9.27;;;19.20;99.90;;;;;;5080036;28;20223;-70
2023/09/11 01:06:34;;;;;;;12.45;9.00;;;19.00;99.90;;;;;;5096589;28;20667;-70
2023/09/11 01:09:22;;;;;;;17.38;9.05;;;19.10;99.90;;;;;;5074353;28;20238;-72
2023/09/11 01:12:11;;;;;;;15.70;9.15;;;19.10;99.90;;;;;;5095551;28;20784;-70
2023/09/11 01:15:03;;;;;;;14.27;8.70;;;19.00;99.90;;;;;;5099343;28;20238;-71
2023/09/11 01:18:01;;;;;;;14.68;9.38;;;19.10;99.90;;;;;;5081388;28;20380;-70
2023/09/11 01:21:22;;;;;;;15.82;9.10;;;19.00;99.90;;;;;;5085916;28;20230;-72
2023/09/11 01:24:44;;;;;;;15.18;10.40;;;18.90;99.90;;;;;;5092141;28;20246;-71
2023/09/11 01:27:54;;;;;;;20.02;9.60;;;18.90;99.90;;;;;;5085115;28;20217;-71
2023/09/11 01:30:46;;;;;;;17.50;9.18;;;18.90;99.90;;;;;;5069622;28;20265;-72
2023/09/11 01:33:35;;;;;;;13.63;9.50;;;18.90;99.90;;;;;;5073731;28;20263;-72
2023/09/11 01:36:24;;;;;;;16.70;9.43;;;18.90;99.90;;;;;;5077761;28;20219;-72
2023/09/11 01:39:13;;;;;;;17.20;9.57;;;18.90;99.90;;;;;;5071640;28;20215;-72
2023/09/11 01:42:09;;;;;;;14.73;9.30;;;18.90;99.90;;;;;;5082404;28;20239;-70
2023/09/11 01:45:00;;;;;;;16.08;9.85;;;18.80;99.90;;;;;;5092641;28;20226;-72
2023/09/11 01:47:52;;;;;;;13.55;8.90;;;18.70;99.90;;;;;;5096178;28;20230;-69
2023/09/11 01:50:42;;;;;;;12.75;9.07;;;18.80;99.90;;;;;;5083875;28;20367;-70
2023/09/11 01:53:31;;;;;;;20.67;9.95;;;18.90;99.90;;;;;;5092149;28;20279;-71
2023/09/11 01:56:22;;;;;;;13.15;9.10;;;18.80;99.90;;;;;;5084248;28;20222;-71
2023/09/11 01:59:11;;;;;;;14.35;9.32;;;18.70;99.90;;;;;;5092548;28;20230;-72
2023/09/11 02:01:59;;;;;;;16.95;10.00;;;18.70;99.90;;;;;;5074660;28;20224;-72
2023/09/11 02:04:50;;;;;;;16.25;10.25;;;18.70;99.90;;;;;;5076410;28;20262;-70
2023/09/11 02:07:39;;;;;;;12.30;10.02;;;18.60;99.90;;;;;;5096337;28;20624;-71
2023/09/11 02:10:27;;;;;;;15.00;9.43;;;18.60;99.90;;;;;;5071733;28;20315;-70
2023/09/11 02:13:16;;;;;;;11.70;9.73;;;18.60;99.90;;;;;;5062985;28;20703;-70
2023/09/11 02:16:05;;;;;;;18.45;10.00;;;18.60;99.90;;;;;;5076618;28;20744;-70
2023/09/11 02:18:54;;;;;;;15.82;9.93;;;18.50;99.90;;;;;;5080978;28;20230;-72
2023/09/11 02:21:45;;;;;;;13.57;9.35;;;18.60;99.90;;;;;;5095445;28;20807;-72
2023/09/11 02:24:34;;;;;;;17.20;10.23;;;18.60;99.90;;;;;;5087330;28;20234;-71
2023/09/11 02:27:22;;;;;;;17.55;10.00;;;18.60;99.90;;;;;;5099499;28;20471;-71
2023/09/11 02:30:12;;;;;;;16.88;10.25;;;18.60;99.90;;;;;;5085302;28;20226;-71
2023/09/11 02:33:02;;;;;;;13.93;10.35;;;18.60;99.90;;;;;;5092032;28;20223;-71
2023/09/11 02:35:53;;;;;;;16.80;10.32;;;18.40;99.90;;;;;;5098179;28;20226;-70
2023/09/11 02:38:44;;;;;;;16.73;10.48;;;18.50;99.90;;;;;;5097093;28;20215;-71
2023/09/11 02:41:33;;;;;;;17.08;10.50;;;18.40;99.90;;;;;;5100201;28;20684;-72
2023/09/11 02:44:22;;;;;;;16.15;10.88;;;18.30;99.90;;;;;;5075122;28;20572;-71
2023/09/11 02:47:11;;;;;;;19.05;10.55;;;18.40;99.90;;;;;;5087808;28;20637;-71
2023/09/11 02:49:59;;;;;;;15.13;10.45;;;18.30;99.90;;;;;;5082219;28;20227;-72
2023/09/11 02:52:48;;;;;;;15.07;10.35;;;18.30;99.90;;;;;;5092294;28;20280;-70
2023/09/11 02:55:39;;;;;;;13.30;10.27;;;18.40;99.90;;;;;;5078692;28;20226;-71
2023/09/11 02:58:28;;;;;;;13.20;10.02;;;18.40;99.90;;;;;;5074355;28;20223;-70
2023/09/11 03:01:18;;;;;;;13.98;10.25;;;18.30;99.90;;;;;;5093573;28;20219;-71
2023/09/11 03:04:07;;;;;;;12.90;9.90;;;18.30;99.90;;;;;;5097743;28;20238;-72
2023/09/11 03:06:57;;;;;;;15.95;10.63;;;18.20;99.90;;;;;;5098881;28;20248;-71
2023/09/11 03:09:46;;;;;;;16.85;10.40;;;18.10;99.90;;;;;;5094021;28;20227;-71
2023/09/11 03:12:37;;;;;;;14.90;10.30;;;18.10;99.90;;;;;;5094726;28;20238;-71
2023/09/11 03:15:27;;;;;;;15.40;10.80;;;18.10;99.90;;;;;;5065559;28;21019;-72
2023/09/11 03:18:17;;;;;;;14.95;10.95;;;18.10;99.90;;;;;;5075181;28;20235;-71
2023/09/11 03:21:07;;;;;;;13.50;9.75;;;17.90;99.90;;;;;;5074421;28;20220;-73
2023/09/11 03:23:56;;;;;;;17.30;10.82;;;17.90;99.90;;;;;;5076485;28;20223;-71
2023/09/11 03:26:47;;;;;;;15.90;10.52;;;18.00;99.90;;;;;;5091574;28;20321;-70
2023/09/11 03:29:40;;;;;;;16.33;10.68;;;17.90;99.90;;;;;;5091524;28;20227;-72
2023/09/11 03:32:29;;;;;;;16.27;10.30;;;17.90;99.90;;;;;;5097253;28;20306;-76
2023/09/11 03:35:18;;;;;;;16.20;10.98;;;18.00;99.90;;;;;;5084418;28;20226;-74
2023/09/11 03:38:07;;;;;;;16.75;10.65;;;18.00;99.90;;;;;;5079741;28;20275;-71
2023/09/11 03:40:56;;;;;;;14.02;10.60;;;17.90;99.90;;;;;;5080733;28;20239;-72
2023/09/11 03:43:46;;;;;;;14.85;10.55;;;17.80;99.90;;;;;;5086953;28;20245;-72
2023/09/11 03:46:36;;;;;;;17.92;10.43;;;17.80;99.90;;;;;;5080594;28;20226;-73
2023/09/11 03:49:25;;;;;;;14.50;9.60;;;17.90;99.90;;;;;;5095227;28;20855;-70
2023/09/11 03:52:14;;;;;;;22.15;10.45;;;17.90;99.90;;;;;;5098968;28;20662;-71
2023/09/11 03:55:04;;;;;;;15.40;10.30;;;17.90;99.90;;;;;;5078263;28;20227;-71
2023/09/11 03:57:53;;;;;;;15.52;10.02;;;17.90;99.90;;;;;;5092912;28;20231;-71
2023/09/11 04:00:42;;;;;;;15.88;11.23;;;17.80;99.90;;;;;;5085141;28;20226;-71
2023/09/11 04:03:32;;;;;;;15.98;10.85;;;17.80;99.90;;;;;;5095132;28;20215;-73
2023/09/11 04:06:21;;;;;;;18.95;10.95;;;17.70;99.90;;;;;;5092409;28;20218;-72
2023/09/11 04:09:10;;;;;;;18.40;11.02;;;17.70;99.90;;;;;;5082792;28;20364;-73
2023/09/11 04:11:59;;;;;;;18.80;10.52;;;17.80;99.90;;;;;;5091138;28;20630;-72
2023/09/11 04:14:47;;;;;;;17.23;10.60;;;17.70;99.90;;;;;;5095422;28;20219;-72
2023/09/11 04:17:39;;;;;;;17.73;11.23;;;17.70;99.90;;;;;;5080498;28;20317;-72
2023/09/11 04:20:33;;;;;;;19.23;11.18;;;17.70;99.90;;;;;;5095911;28;20215;-72
2023/09/11 04:23:24;;;;;;;19.05;11.18;;;17.60;99.90;;;;;;5080712;28;20241;-71
2023/09/11 04:26:13;;;;;;;16.80;10.95;;;17.70;99.90;;;;;;5072784;28;20261;-71
2023/09/11 04:29:02;;;;;;;18.90;11.52;;;17.70;99.90;;;;;;5073533;27;20709;-70
2023/09/11 04:31:52;;;;;;;15.80;11.15;;;17.70;99.90;;;;;;5080855;28;20249;-68
2023/09/11 04:34:41;;;;;;;15.82;10.82;;;17.70;99.90;;;;;;5080669;28;20223;-70
2023/09/11 04:37:31;;;;;;;16.30;11.15;;;17.70;99.90;;;;;;5083368;28;20713;-70
2023/09/11 04:40:20;;;;;;;17.38;10.95;;;17.80;99.90;;;;;;5095133;28;20349;-69
2023/09/11 04:43:09;;;;;;;17.55;11.82;;;17.70;99.90;;;;;;5061416;28;20292;-70
2023/09/11 04:45:58;;;;;;;19.98;11.05;;;17.70;99.90;;;;;;5096985;28;20235;-70
2023/09/11 04:48:47;;;;;;;17.50;11.60;;;17.80;99.90;;;;;;5077781;28;20219;-69
2023/09/11 04:51:37;;;;;;;17.98;11.65;;;17.70;99.90;;;;;;5077136;28;20846;-71
2023/09/11 04:54:27;;;;;;;16.77;11.55;;;17.70;99.90;;;;;;5081184;28;20267;-70
2023/09/11 04:57:16;;;;;;;17.60;11.25;;;17.80;99.90;;;;;;5088961;28;20219;-70
2023/09/11 05:00:09;;;;;;;15.50;11.43;;;17.80;99.90;;;;;;5077454;28;20836;-72
2023/09/11 05:03:00;;;;;;;14.18;11.20;;;18.10;99.90;;;;;;5092975;28;20223;-70
2023/09/11 05:05:49;;;;;;;19.02;11.48;;;18.20;99.90;;;;;;5074428;28;20214;-70
2023/09/11 05:08:39;;;;;;;19.95;11.70;;;18.10;99.90;;;;;;5073611;28;20243;-71
2023/09/11 05:11:49;;;;;;;17.48;11.90;;;18.20;99.90;;;;;;5076997;28;20911;-70
2023/09/11 05:14:39;;;;;;;21.92;12.50;;;18.30;99.90;;;;;;5067640;28;20230;-69
2023/09/11 05:17:29;;;;;;;19.10;11.88;;;18.20;99.90;;;;;;5070700;28;20238;-69
2023/09/11 05:20:19;;;;;;;21.80;11.35;;;18.40;99.90;;;;;;5073755;28;20220;-69
2023/09/11 05:23:08;;;;;;;19.25;12.52;;;18.40;99.90;;;;;;5076735;28;20310;-71
2023/09/11 05:25:56;;;;;;;20.77;12.40;;;18.40;99.90;;;;;;5078175;28;20738;-71
2023/09/11 05:28:46;;;;;;;16.52;11.40;;;18.50;99.90;;;;;;5080125;28;20751;-69
2023/09/11 05:31:35;;;;;;;17.30;11.40;;;18.60;99.90;;;;;;5080012;28;20219;-69
2023/09/11 05:34:24;;;;;;;16.65;12.20;;;18.80;99.90;;;;;;5072212;28;20730;-71
2023/09/11 05:37:13;;;;;;;20.00;12.27;;;18.70;99.90;;;;;;5082194;28;20722;-70
2023/09/11 05:40:05;;;;;;;17.90;12.13;;;18.70;99.90;;;;;;5078167;28;20220;-71
2023/09/11 05:42:54;;;;;;;21.38;11.52;;;18.80;99.90;;;;;;5077826;28;20216;-70
2023/09/11 05:45:45;;;;;;;24.48;12.63;;;18.90;99.90;;;;;;5096440;28;20207;-72
2023/09/11 05:48:34;;;;;;;21.60;12.77;;;18.90;99.90;;;;;;5079047;28;21201;-73
2023/09/11 05:51:23;;;;;;;18.38;12.65;;;19.00;99.90;;;;;;5076375;28;20787;-72
2023/09/11 05:54:12;;;;;;;21.42;12.88;;;19.10;99.90;;;;;;5093845;28;20293;-73
2023/09/11 05:57:02;;;;;;;24.45;12.50;;;19.20;99.90;;;;;;5103759;28;20306;-71
2023/09/11 05:59:54;;;;;;;18.58;11.68;;;19.20;99.90;;;;;;5092356;28;20211;-68
2023/09/11 06:02:46;;;;;;;21.17;12.60;;;19.30;99.90;;;;;;5102978;28;20231;-68
2023/09/11 06:05:36;;;;;;;19.88;12.73;;;19.40;99.90;;;;;;5096370;28;20257;-68
2023/09/11 06:08:26;;;;;;;21.45;12.80;;;19.60;99.90;;;;;;5095836;28;20227;-71
2023/09/11 06:11:15;;;;;;;18.88;12.90;;;19.70;99.90;;;;;;5088100;28;20517;-71
2023/09/11 06:14:05;;;;;;;20.92;13.13;;;19.90;99.90;;;;;;5100351;28;20261;-70
2023/09/11 06:16:54;;;;;;;19.10;12.35;;;20.00;99.90;;;;;;5070779;28;20239;-72
2023/09/11 06:19:45;;;;;;;21.27;13.57;;;20.00;99.90;;;;;;5078351;28;20644;-72
2023/09/11 06:22:34;;;;;;;17.95;12.60;;;20.00;99.90;;;;;;5074048;28;20235;-70
2023/09/11 06:25:22;;;;;;;19.55;13.00;;;19.90;99.90;;;;;;5076020;28;20958;-70
2023/09/11 06:28:11;;;;;;;20.05;12.45;;;19.90;99.90;;;;;;5077532;28;20553;-69
2023/09/11 06:31:00;;;;;;;17.83;13.00;;;20.20;99.90;;;;;;5076084;28;20255;-71
2023/09/11 06:33:49;;;;;;;20.27;13.30;;;20.20;99.90;;;;;;5097568;28;20267;-70
2023/09/11 06:36:40;;;;;;;26.48;13.70;;;20.20;99.90;;;;;;5097265;28;20263;-71
2023/09/11 06:39:29;;;;;;;18.25;12.75;;;20.30;99.90;;;;;;5095253;28;20299;-71
2023/09/11 06:42:21;;;;;;;23.20;12.85;;;20.40;99.90;;;;;;5098767;28;20225;-69
2023/09/11 06:45:10;;;;;;;23.23;12.45;;;20.50;99.90;;;;;;5099360;28;20227;-71
2023/09/11 06:47:59;;;;;;;21.15;12.50;;;20.70;99.90;;;;;;5077895;28;20242;-71
2023/09/11 06:50:48;;;;;;;20.92;13.70;;;20.70;99.90;;;;;;5064402;28;20699;-70
2023/09/11 06:53:39;;;;;;;20.65;12.75;;;20.80;99.90;;;;;;5078629;28;20763;-71
2023/09/11 06:56:28;;;;;;;18.60;12.80;;;20.90;99.90;;;;;;5097984;28;20376;-70
2023/09/11 06:59:17;;;;;;;17.75;12.70;;;20.90;99.90;;;;;;5097864;28;20226;-72
2023/09/11 07:02:08;;;;;;;20.00;12.90;;;21.00;99.90;;;;;;5093316;28;20250;-74
2023/09/11 07:04:58;;;;;;;19.50;11.85;;;21.20;99.90;;;;;;5096069;28;20300;-73
2023/09/11 07:07:47;;;;;;;20.80;12.57;;;21.30;99.90;;;;;;5082902;28;20231;-73
2023/09/11 07:10:37;;;;;;;25.52;12.68;;;21.40;99.90;;;;;;5100708;28;20241;-72
2023/09/11 07:13:29;;;;;;;23.58;13.02;;;21.50;99.90;;;;;;5091539;28;20298;-69
2023/09/11 07:16:18;;;;;;;19.88;12.48;;;21.60;99.90;;;;;;5069477;28;20711;-76
2023/09/11 07:19:07;;;;;;;21.10;12.68;;;21.70;99.90;;;;;;5097952;28;20231;-73
2023/09/11 07:21:56;;;;;;;19.45;12.50;;;21.80;99.90;;;;;;5089095;28;20239;-75
2023/09/11 07:24:45;;;;;;;20.48;12.93;;;22.10;99.90;;;;;;5090935;28;20212;-75
2023/09/11 07:27:36;;;;;;;20.55;12.93;;;22.40;99.90;;;;;;5094904;28;21011;-73
2023/09/11 07:30:25;;;;;;;16.48;11.95;;;22.70;99.90;;;;;;5097817;28;20267;-74
2023/09/11 07:33:14;;;;;;;20.73;12.10;;;22.90;99.90;;;;;;5093968;28;20234;-75
2023/09/11 07:36:07;;;;;;;15.77;11.30;;;23.00;99.90;;;;;;5083513;28;20237;-75
2023/09/11 07:38:55;;;;;;;18.75;11.85;;;23.20;99.90;;;;;;5093771;28;20215;-75
2023/09/11 07:41:45;;;;;;;18.23;11.77;;;23.40;99.90;;;;;;5097897;28;20231;-75
2023/09/11 07:44:35;;;;;;;20.52;10.93;;;23.50;99.90;;;;;;5097734;28;20654;-75
2023/09/11 07:47:24;;;;;;;19.85;11.05;;;23.60;99.90;;;;;;5095683;28;20211;-75
2023/09/11 07:50:13;;;;;;;26.80;10.93;;;23.90;99.90;;;;;;5087569;28;20257;-75
2023/09/11 07:53:02;;;;;;;18.15;10.80;;;24.10;99.90;;;;;;5100518;28;20230;-76
2023/09/11 07:55:51;;;;;;;20.20;10.75;;;24.30;99.90;;;;;;5083591;28;20237;-73
2023/09/11 07:58:40;;;;;;;19.08;11.30;;;24.60;99.90;;;;;;5096441;28;20280;-74
2023/09/11 08:01:31;;;;;;;20.25;11.10;;;24.90;99.90;;;;;;5095517;28;20282;-74
2023/09/11 08:04:20;;;;;;;15.75;9.98;;;25.10;99.90;;;;;;5092669;28;20226;-74
2023/09/11 08:07:09;;;;;;;21.38;10.60;;;25.40;99.90;;;;;;5096084;28;20344;-76
2023/09/11 08:09:59;;;;;;;22.45;11.30;;;25.50;99.90;;;;;;5097106;28;20231;-76
2023/09/11 08:12:48;;;;;;;14.80;10.05;;;25.40;99.90;;;;;;5097042;28;20227;-74
2023/09/11 08:15:37;;;;;;;18.48;10.50;;;25.70;99.90;;;;;;5063179;28;20624;-75
2023/09/11 08:18:28;;;;;;;24.13;11.15;;;26.20;99.90;;;;;;5090045;28;20325;-75
2023/09/11 08:21:19;;;;;;;15.00;10.25;;;26.30;99.90;;;;;;5067603;28;20230;-73
2023/09/11 08:24:08;;;;;;;16.40;10.93;;;26.70;99.90;;;;;;5098649;28;20276;-76
2023/09/11 08:26:57;;;;;;;17.73;10.38;;;27.30;99.90;;;;;;5076937;28;20239;-76
2023/09/11 08:29:46;;;;;;;15.23;10.98;;;27.80;99.90;;;;;;5086804;28;20223;-75
2023/09/11 08:32:35;;;;;;;16.75;10.18;;;28.10;99.90;;;;;;5093934;28;20236;-76
2023/09/11 08:35:26;;;;;;;17.95;10.88;;;28.10;99.90;;;;;;5089750;28;20266;-74
2023/09/11 08:38:15;;;;;;;16.17;10.68;;;28.70;99.90;;;;;;5061051;28;20235;-74
2023/09/11 08:41:07;;;;;;;16.85;10.50;;;29.00;99.90;;;;;;5066551;28;20992;-74
2023/09/11 08:43:56;;;;;;;16.15;10.80;;;29.20;99.90;;;;;;5074171;28;20242;-75
2023/09/11 08:46:47;;;;;;;17.77;11.07;;;29.30;99.90;;;;;;5077942;28;21145;-75
2023/09/11 08:49:42;;;;;;;18.48;10.35;;;29.40;99.90;;;;;;5074373;28;20280;-76
2023/09/11 08:52:35;;;;;;;15.07;9.77;;;30.00;99.90;;;;;;5073008;28;20598;-75
2023/09/11 08:55:25;;;;;;;15.80;9.60;;;30.20;99.90;;;;;;5073915;28;20221;-75
2023/09/11 08:58:18;;;;;;;19.25;10.05;;;30.70;99.90;;;;;;5071078;28;20215;-75
2023/09/11 09:01:08;;;;;;;14.82;10.23;;;30.90;95.90;;;;;;5076112;28;20253;-75
2023/09/11 09:03:59;;;;;;;17.63;9.68;;;30.90;98.20;;;;;;5079447;28;20226;-75
2023/09/11 09:06:48;;;;;;;16.48;9.93;;;31.20;99.90;;;;;;5092907;28;20349;-75
2023/09/11 09:09:41;;;;;;;20.85;10.20;;;31.00;52.00;;;;;;5093405;28;20295;-74
2023/09/11 09:12:30;;;;;;;15.15;9.73;;;30.70;91.00;;;;;;5090423;28;20225;-75
2023/09/11 09:15:21;;;;;;;17.08;9.77;;;29.80;99.90;;;;;;5098283;28;20230;-75
2023/09/11 09:18:10;;;;;;;13.52;9.75;;;29.10;99.90;;;;;;5067800;28;20227;-75
2023/09/11 09:21:00;;;;;;;16.63;9.48;;;28.70;99.90;;;;;;5096726;28;20280;-74
2023/09/11 09:23:52;;;;;;;16.45;9.88;;;28.20;99.90;;;;;;5072521;28;20581;-76
2023/09/11 09:29:40;;;;;;;16.80;9.82;;;27.70;99.90;;;;;;5114378;27;20551;-75
2023/09/11 09:32:34;;;;;;;22.05;9.98;;;27.20;99.90;;;;;;5133759;27;20238;-75
2023/09/11 09:35:26;;;;;;;21.38;10.40;;;27.00;99.90;;;;;;5133315;27;20244;-76
2023/09/11 09:38:19;;;;;;;15.50;9.15;;;26.90;99.90;;;;;;5019383;27;20216;-75
2023/09/11 09:41:12;;;;;;;13.80;9.05;;;26.90;99.90;;;;;;5024762;28;20220;-76
2023/09/11 09:44:01;;;;;;;14.68;9.20;;;26.80;99.90;;;;;;5026576;27;20259;-75
2023/09/11 09:46:53;;;;;;;15.75;9.98;;;26.70;99.90;;;;;;5102958;27;20221;-75
2023/09/11 09:49:48;;;;;;;20.95;10.05;;;26.70;99.90;;;;;;5101884;27;20715;-74
2023/09/11 09:52:38;;;;;;;21.48;9.70;;;26.70;99.90;;;;;;5055325;28;20747;-74
2023/09/11 09:55:28;;;;;;;16.13;9.30;;;26.60;99.90;;;;;;5024074;27;20321;-74
2023/09/11 09:58:19;;;;;;;15.65;9.77;;;26.60;99.90;;;;;;5030073;27;20210;-76
2023/09/11 10:01:11;;;;;;;12.77;8.80;;;26.50;99.90;;;;;;5022760;27;20794;-74
2023/09/11 10:04:01;;;;;;;11.23;8.68;;;26.40;99.90;;;;;;5032407;27;20241;-75
2023/09/11 10:06:54;;;;;;;11.20;8.93;;;26.40;99.90;;;;;;5014795;28;20289;-75
2023/09/11 10:09:43;;;;;;;17.70;9.32;;;26.40;99.90;;;;;;5091148;27;20232;-75
2023/09/11 10:12:32;;;;;;;13.70;8.75;;;26.40;99.90;;;;;;5015212;28;20229;-76
2023/09/11 10:15:22;;;;;;;14.57;8.45;;;26.40;99.90;;;;;;5018501;28;20704;-76
2023/09/11 10:18:12;;;;;;;14.65;9.45;;;26.50;99.90;;;;;;5030754;27;20461;-76
2023/09/11 10:21:02;;;;;;;12.85;8.75;;;26.50;99.90;;;;;;5095373;27;20236;-75
2023/09/11 10:23:52;;;;;;;14.52;8.55;;;26.60;99.90;;;;;;5027729;27;20719;-76
2023/09/11 10:26:46;;;;;;;14.10;9.40;;;26.60;99.90;;;;;;5012813;27;20220;-75
2023/09/11 10:29:43;;;;;;;14.65;9.43;;;26.50;99.90;;;;;;5110209;27;20233;-74
2023/09/11 10:32:38;;;;;;;17.80;9.55;;;26.60;99.90;;;;;;5022783;27;20229;-75
2023/09/11 10:35:31;;;;;;;13.20;9.70;;;26.70;99.90;;;;;;5091326;27;20553;-74
2023/09/11 10:38:22;;;;;;;11.07;8.32;;;26.70;99.90;;;;;;5110695;27;20282;-76
2023/09/11 10:41:10;;;;;;;14.20;9.18;;;26.70;99.90;;;;;;5120637;27;20508;-73
2023/09/11 10:43:59;;;;;;;13.60;10.00;;;26.70;99.90;;;;;;5126329;27;20228;-74
2023/09/11 10:46:50;;;;;;;14.88;9.30;;;26.60;99.90;;;;;;5117898;27;20264;-75
2023/09/11 10:49:40;;;;;;;13.27;8.85;;;26.60;99.90;;;;;;5120447;27;20230;-73
2023/09/11 10:52:29;;;;;;;11.43;8.40;;;26.60;99.90;;;;;;5115675;27;20744;-74
2023/09/11 10:55:22;;;;;;;12.80;8.85;;;26.60;99.90;;;;;;5114695;27;20717;-74
2023/09/11 10:58:11;;;;;;;11.10;8.18;;;26.60;99.90;;;;;;5120428;27;20218;-74
2023/09/11 11:01:00;;;;;;;12.30;9.68;;;26.70;99.90;;;;;;5077751;27;20245;-75
2023/09/11 11:03:53;;;;;;;12.98;9.13;;;26.70;99.90;;;;;;5002427;27;20237;-74
2023/09/11 11:06:45;;;;;;;9.48;8.40;;;26.60;99.90;;;;;;4999096;28;20631;-77
2023/09/11 11:09:35;;;;;;;8.05;7.13;;;26.60;99.90;;;;;;5007080;28;21748;-74
2023/09/11 11:12:34;;;;;;;9.40;7.40;;;26.80;99.90;;;;;;5011881;28;20225;-75
2023/09/11 11:15:24;;;;;;;11.75;7.88;;;27.00;99.90;;;;;;5022940;28;20237;-72
2023/09/11 11:18:16;;;;;;;7.93;7.13;;;26.90;99.90;;;;;;5005772;28;20708;-74
2023/09/11 11:21:07;;;;;;;11.07;7.38;;;27.00;99.00;;;;;;4978491;28;20245;-74
2023/09/11 11:24:00;;;;;;;9.32;7.10;;;27.00;99.90;;;;;;5101869;27;20220;-74
2023/09/11 11:26:51;;;;;;;9.93;8.40;;;27.00;99.90;;;;;;5012342;28;21258;-75
2023/09/11 11:29:42;;;;;;;11.93;7.25;;;26.90;99.90;;;;;;5016308;28;20713;-75
2023/09/11 11:32:31;;;;;;;11.30;7.70;;;26.80;99.90;;;;;;5012817;28;20222;-75
2023/09/11 11:35:21;;;;;;;13.90;7.78;;;26.80;99.90;;;;;;5014568;28;20251;-75
2023/09/11 11:38:10;;;;;;;9.93;7.50;;;26.80;99.90;;;;;;5007418;28;20757;-75
2023/09/11 11:40:59;;;;;;;10.38;7.10;;;26.60;99.90;;;;;;5117235;27;20322;-74
2023/09/11 11:43:52;;;;;;;9.90;7.30;;;26.70;99.90;;;;;;5111106;27;20241;-75
2023/09/11 11:46:42;;;;;;;10.20;7.53;;;26.80;97.90;;;;;;5033474;27;20363;-74
2023/09/11 11:49:36;;;;;;;10.13;7.63;;;27.00;97.40;;;;;;5016991;27;20248;-75
2023/09/11 11:52:25;;;;;;;12.48;8.77;;;26.90;99.90;;;;;;5092990;27;20232;-74
2023/09/11 11:55:21;;;;;;;9.55;7.35;;;26.90;99.90;;;;;;5010940;28;20222;-76
2023/09/11 11:58:12;;;;;;;12.00;7.78;;;26.90;99.90;;;;;;5016594;27;20221;-77
2023/09/11 12:01:03;;;;;;;10.90;8.15;;;26.80;99.90;;;;;;5114396;27;20234;-76
2023/09/11 12:03:53;;;;;;;13.60;8.52;;;26.70;99.90;;;;;;5113049;27;20221;-78
2023/09/11 12:06:42;;;;;;;12.55;9.05;;;26.70;99.90;;;;;;5011512;27;20233;-78
2023/09/11 12:09:32;;;;;;;12.95;9.00;;;26.70;99.90;;;;;;5014969;28;20229;-78
2023/09/11 12:12:23;;;;;;;10.57;7.93;;;26.80;99.90;;;;;;5108494;27;20241;-78
2023/09/11 12:15:12;;;;;;;12.32;8.32;;;26.80;99.90;;;;;;5053024;27;20259;-77
2023/09/11 12:18:02;;;;;;;9.73;8.73;;;26.80;99.90;;;;;;5054668;27;20554;-77
2023/09/11 12:20:55;;;;;;;10.43;9.18;;;26.70;99.90;;;;;;5079958;27;20222;-76
2023/09/11 12:23:45;;;;;;;16.63;9.90;;;26.60;99.90;;;;;;5042478;28;20276;-77
2023/09/11 12:26:34;;;;;;;10.50;9.25;;;26.60;99.90;;;;;;5019297;27;22070;-75
2023/09/11 12:29:24;;;;;;;11.30;10.00;;;26.60;99.90;;;;;;5003861;28;21038;-74
2023/09/11 12:32:13;;;;;;;10.80;8.85;;;26.60;99.90;;;;;;5001727;27;20232;-75
2023/09/11 12:35:04;;;;;;;10.80;9.23;;;26.60;99.90;;;;;;5004576;28;20233;-75
2023/09/11 12:37:54;;;;;;;10.18;9.07;;;26.60;99.90;;;;;;5001330;28;21015;-75
2023/09/11 12:40:43;;;;;;;10.98;8.80;;;26.50;99.90;;;;;;5008230;28;20680;-75
2023/09/11 12:43:32;;;;;;;8.95;8.15;;;26.50;99.90;;;;;;5005532;28;20225;-76
2023/09/11 12:46:22;;;;;;;13.52;9.75;;;26.50;99.90;;;;;;5006355;28;20229;-75
2023/09/11 12:49:11;;;;;;;13.18;8.75;;;26.50;99.90;;;;;;5005013;28;20669;-75
2023/09/11 12:52:00;;;;;;;10.63;8.40;;;26.50;99.90;;;;;;5013391;27;20232;-74
2023/09/11 12:54:53;;;;;;;11.82;8.63;;;26.50;99.90;;;;;;5011468;28;20226;-74
2023/09/11 12:57:43;;;;;;;12.73;9.25;;;26.50;99.90;;;;;;5010212;28;20230;-76
2023/09/11 13:00:34;;;;;;;12.15;9.77;;;26.50;99.90;;;;;;5027952;27;20218;-75
2023/09/11 13:03:23;;;;;;;10.13;9.00;;;26.50;99.90;;;;;;5075628;27;20268;-75
2023/09/11 13:06:13;;;;;;;13.05;8.75;;;26.50;99.90;;;;;;5067095;27;20229;-76
2023/09/11 13:09:04;;;;;;;12.20;8.27;;;26.50;99.90;;;;;;5008315;28;20263;-75
2023/09/11 13:11:54;;;;;;;10.88;9.15;;;26.50;99.90;;;;;;4992987;28;20229;-75
2023/09/11 13:14:43;;;;;;;12.40;9.25;;;26.50;99.90;;;;;;4998925;28;20230;-76
2023/09/11 13:17:33;;;;;;;10.20;9.00;;;26.40;99.90;;;;;;5012875;27;20229;-75
2023/09/11 13:20:22;;;;;;;12.07;10.52;;;26.40;99.90;;;;;;5033501;27;20213;-76
2023/09/11 13:23:10;;;;;;;11.98;9.15;;;26.40;99.90;;;;;;5014734;28;20379;-77
2023/09/11 13:26:00;;;;;;;9.63;8.73;;;26.30;99.90;;;;;;5012650;28;20785;-76
2023/09/11 13:28:51;;;;;;;9.93;8.93;;;26.30;99.90;;;;;;5021186;28;20299;-75
2023/09/11 13:31:40;;;;;;;9.73;8.68;;;26.30;99.90;;;;;;5035295;27;20217;-75
2023/09/11 13:34:31;;;;;;;9.90;8.90;;;26.40;99.90;;;;;;5014622;28;20218;-75
2023/09/11 13:37:20;;;;;;;16.83;10.52;;;26.40;99.90;;;;;;5012042;28;20225;-76
2023/09/11 13:40:09;;;;;;;14.38;10.70;;;26.40;99.90;;;;;;5081750;27;20884;-77
2023/09/11 13:42:58;;;;;;;10.68;9.32;;;26.40;99.90;;;;;;5011854;28;20226;-75
2023/09/11 13:45:51;;;;;;;12.27;9.60;;;26.30;99.90;;;;;;5037473;28;20687;-76
2023/09/11 13:48:40;;;;;;;9.63;8.65;;;26.30;99.90;;;;;;5011601;28;20249;-75
2023/09/11 13:51:29;;;;;;;11.20;8.55;;;26.50;99.90;;;;;;5030113;28;20222;-76
2023/09/11 13:54:18;;;;;;;9.95;8.95;;;26.50;99.90;;;;;;5082226;27;20600;-76
2023/09/11 13:57:07;;;;;;;20.33;10.73;;;26.50;99.90;;;;;;5022598;28;20282;-74
2023/09/11 13:59:56;;;;;;;11.60;9.77;;;26.60;99.90;;;;;;5012289;28;20229;-73
2023/09/11 14:02:46;;;;;;;12.30;10.80;;;26.50;99.90;;;;;;5012899;28;20261;-72
2023/09/11 14:05:35;;;;;;;10.55;9.10;;;26.50;99.90;;;;;;5090240;27;20226;-73
2023/09/11 14:08:35;;;;;;;11.60;9.10;;;26.50;99.90;;;;;;5086812;27;20220;-74
2023/09/11 14:11:24;;;;;;;13.40;9.32;;;26.40;99.90;;;;;;5005317;28;20234;-73
2023/09/11 14:14:13;;;;;;;12.20;9.45;;;26.40;99.90;;;;;;5005941;28;20280;-72
2023/09/11 14:17:02;;;;;;;11.93;9.65;;;26.30;99.90;;;;;;5110913;27;20260;-72
2023/09/11 14:19:53;;;;;;;10.02;9.02;;;26.30;99.90;;;;;;5043541;27;20229;-72
2023/09/11 14:22:42;;;;;;;10.82;9.75;;;26.30;99.90;;;;;;5117197;27;20237;-73
2023/09/11 14:25:32;;;;;;;10.70;9.60;;;26.30;99.90;;;;;;5120069;27;20219;-73
2023/09/11 14:28:21;;;;;;;11.02;9.65;;;26.20;99.90;;;;;;5073929;27;20736;-74
2023/09/11 14:31:09;;;;;;;11.77;9.32;;;26.20;99.90;;;;;;5068018;27;20683;-73
2023/09/11 14:33:58;;;;;;;10.90;9.75;;;26.20;99.90;;;;;;5011508;28;20229;-73